createdAt,value
2023-03-31T00:00:47.661Z,54.60
2023-03-31T00:03:22.803Z,55.60
2023-03-31T00:05:53.715Z,55.10
2023-03-31T00:08:21.693Z,55.89
2023-03-31T00:10:49.358Z,54.60
2023-03-31T00:13:16.772Z,55.26
2023-03-31T00:15:44.766Z,56.44
2023-03-31T00:18:12.364Z,56.38
2023-03-31T00:20:39.655Z,56.89
2023-03-31T00:23:11.323Z,57.14
2023-03-31T00:25:42.087Z,58.16
2023-03-31T00:28:09.316Z,58.33
2023-03-31T00:30:36.764Z,57.52
2023-03-31T00:33:04.957Z,57.66
2023-03-31T00:35:32.486Z,57.86
2023-03-31T00:38:00.197Z,57.55
2023-03-31T00:40:27.614Z,56.43
2023-03-31T00:42:54.866Z,56.09
2023-03-31T00:45:23.897Z,56.95
2023-03-31T00:47:53.721Z,57.20
2023-03-31T00:50:29.841Z,57.82
2023-03-31T00:52:59.286Z,57.18
2023-03-31T00:55:31.045Z,57.56
2023-03-31T00:57:59.209Z,57.10
2023-03-31T01:00:26.507Z,56.96
2023-03-31T01:03:00.097Z,57.48
2023-03-31T01:05:40.159Z,57.46
2023-03-31T01:08:07.718Z,58.03
2023-03-31T01:10:41.896Z,57.31
2023-03-31T01:13:11.200Z,56.63
2023-03-31T01:15:38.654Z,57.02
2023-03-31T01:18:06.660Z,56.13
2023-03-31T01:20:43.627Z,56.63
2023-03-31T01:23:29.290Z,56.42
2023-03-31T01:26:09.606Z,56.30
2023-03-31T01:29:00.682Z,58.69
2023-03-31T01:31:37.769Z,55.46
2023-03-31T01:34:12.544Z,57.64
2023-03-31T01:36:56.354Z,57.48
2023-03-31T01:39:26.882Z,57.79
2023-03-31T01:42:00.540Z,58.29
2023-03-31T01:44:40.045Z,56.75
2023-03-31T01:47:26.099Z,58.19
2023-03-31T01:49:58.921Z,57.41
2023-03-31T01:52:37.340Z,58.37
2023-03-31T01:55:08.463Z,58.24
2023-03-31T01:57:37.216Z,58.54
2023-03-31T02:00:04.735Z,58.22
2023-03-31T02:02:52.360Z,59.01
2023-03-31T02:05:22.212Z,58.59
2023-03-31T02:08:01.912Z,58.65
2023-03-31T02:10:31.798Z,58.88
2023-03-31T02:13:00.710Z,57.16
2023-03-31T02:15:35.122Z,57.59
2023-03-31T02:18:06.360Z,56.04
2023-03-31T02:20:34.028Z,52.77
2023-03-31T02:23:01.828Z,50.50
2023-03-31T02:25:32.853Z,49.79
2023-03-31T02:28:02.838Z,47.70
2023-03-31T02:30:40.667Z,45.68
2023-03-31T02:33:08.036Z,44.67
2023-03-31T02:35:37.036Z,43.24
2023-03-31T02:38:07.069Z,42.71
2023-03-31T02:40:34.287Z,41.28
2023-03-31T02:43:02.329Z,40.46
2023-03-31T02:45:41.360Z,40.02
2023-03-31T02:48:11.649Z,38.25
2023-03-31T02:50:59.909Z,37.59
2023-03-31T02:53:39.632Z,36.97
2023-03-31T02:56:26.101Z,36.37
2023-03-31T02:58:57.675Z,36.33
2023-03-31T03:01:35.935Z,36.33
2023-03-31T03:04:17.419Z,35.50
2023-03-31T03:06:57.870Z,34.74
2023-03-31T03:09:50.297Z,33.58
2023-03-31T03:12:29.755Z,34.02
2023-03-31T03:15:00.022Z,34.24
2023-03-31T03:17:29.452Z,33.65
2023-03-31T03:19:59.365Z,33.73
2023-03-31T03:22:26.886Z,32.77
2023-03-31T03:24:54.192Z,33.73
2023-03-31T03:27:23.250Z,34.25
2023-03-31T03:29:50.564Z,34.36
2023-03-31T03:32:18.002Z,34.12
2023-03-31T03:34:45.320Z,33.95
2023-03-31T03:37:12.732Z,32.10
2023-03-31T03:39:39.961Z,31.58
2023-03-31T03:42:07.328Z,30.66
2023-03-31T03:44:34.604Z,29.52
2023-03-31T03:47:02.175Z,29.62
2023-03-31T03:49:29.528Z,30.12
2023-03-31T03:51:56.769Z,29.15
2023-03-31T03:54:24.066Z,28.02
2023-03-31T03:56:51.427Z,27.82
2023-03-31T03:59:18.668Z,27.31
2023-03-31T04:01:45.988Z,27.73
2023-03-31T04:04:13.182Z,27.86
2023-03-31T04:06:40.474Z,27.13
2023-03-31T04:09:07.800Z,26.27
2023-03-31T04:11:35.773Z,25.82
2023-03-31T04:14:03.387Z,25.70
2023-03-31T04:16:31.050Z,24.59
2023-03-31T04:18:59.328Z,24.88
2023-03-31T04:21:26.698Z,24.69
2023-03-31T04:24:04.788Z,24.70
2023-03-31T04:26:43.587Z,23.78
2023-03-31T04:29:13.057Z,23.51
2023-03-31T04:31:43.392Z,22.77
2023-03-31T04:34:13.768Z,23.03
2023-03-31T04:36:47.895Z,22.01
2023-03-31T04:39:16.441Z,22.03
2023-03-31T04:41:44.390Z,21.88
2023-03-31T04:44:11.645Z,22.17
2023-03-31T04:46:38.980Z,21.36
2023-03-31T04:49:06.169Z,22.60
2023-03-31T04:51:33.403Z,21.33
2023-03-31T04:54:00.790Z,21.47
2023-03-31T04:56:28.107Z,21.27
2023-03-31T04:58:55.344Z,21.34
2023-03-31T05:01:22.766Z,21.36
2023-03-31T05:03:50.105Z,22.04
2023-03-31T05:06:17.872Z,22.05
2023-03-31T05:08:45.308Z,22.11
2023-03-31T05:11:12.591Z,21.09
2023-03-31T05:13:40.418Z,20.85
2023-03-31T05:16:09.068Z,21.02
2023-03-31T05:18:36.999Z,20.92
2023-03-31T05:21:17.979Z,19.97
2023-03-31T05:23:46.364Z,20.91
2023-03-31T05:26:14.062Z,21.08
2023-03-31T05:28:41.974Z,20.49
2023-03-31T05:31:09.844Z,20.35
2023-03-31T05:33:42.272Z,19.76
2023-03-31T05:36:10.829Z,19.47
2023-03-31T05:38:38.489Z,19.58
2023-03-31T05:41:06.749Z,19.59
2023-03-31T05:43:34.095Z,19.90
2023-03-31T05:46:01.816Z,19.72
2023-03-31T05:48:29.092Z,19.25
2023-03-31T05:50:57.163Z,19.80
2023-03-31T05:53:24.535Z,19.44
2023-03-31T05:55:57.566Z,19.66
2023-03-31T05:58:24.801Z,19.32
2023-03-31T06:01:01.629Z,18.98
2023-03-31T06:03:28.992Z,19.47
2023-03-31T06:05:56.446Z,19.36
2023-03-31T06:08:23.941Z,19.13
2023-03-31T06:10:51.872Z,19.08
2023-03-31T06:13:19.062Z,18.92
2023-03-31T06:23:11.115Z,19.59
2023-03-31T06:25:50.488Z,19.01
2023-03-31T06:28:18.548Z,19.25
2023-03-31T06:30:45.940Z,19.58
2023-03-31T06:33:13.872Z,19.21
2023-03-31T06:35:41.882Z,19.26
2023-03-31T06:38:09.069Z,19.39
2023-03-31T06:40:36.671Z,18.83
2023-03-31T06:43:03.943Z,18.80
2023-03-31T06:45:31.309Z,18.21
2023-03-31T06:47:58.669Z,18.52
2023-03-31T06:59:39.666Z,17.70
2023-03-31T07:05:19.873Z,17.82
2023-03-31T07:07:47.194Z,17.75
2023-03-31T07:10:14.403Z,17.80
2023-03-31T07:12:41.616Z,17.81
2023-03-31T07:15:09.217Z,18.18
2023-03-31T07:17:37.805Z,18.45
2023-03-31T07:20:10.257Z,18.64
2023-03-31T07:22:37.604Z,18.65
2023-03-31T07:25:04.994Z,19.51
2023-03-31T07:27:32.250Z,19.59
2023-03-31T07:29:59.500Z,19.56
2023-03-31T07:32:28.506Z,20.26
2023-03-31T07:34:56.502Z,20.68
2023-03-31T07:37:23.799Z,20.20
2023-03-31T07:39:51.176Z,20.94
2023-03-31T07:42:18.328Z,21.10
2023-03-31T07:44:45.588Z,20.39
2023-03-31T07:47:12.931Z,21.37
2023-03-31T07:49:40.216Z,21.36
2023-03-31T07:52:07.566Z,22.32
2023-03-31T07:54:34.891Z,21.98
2023-03-31T07:57:04.671Z,22.45
2023-03-31T07:59:32.236Z,22.50
2023-03-31T08:01:59.503Z,22.53
2023-03-31T08:04:27.225Z,22.72
2023-03-31T08:06:54.475Z,23.58
2023-03-31T08:09:23.140Z,23.32
2023-03-31T08:11:50.527Z,23.23
2023-03-31T08:14:27.253Z,23.01
2023-03-31T08:17:01.678Z,24.15
2023-03-31T08:19:28.939Z,24.39
2023-03-31T08:21:56.258Z,24.29
2023-03-31T08:24:23.582Z,23.60
2023-03-31T08:26:50.936Z,24.10
2023-03-31T08:29:18.163Z,24.33
2023-03-31T08:31:45.411Z,25.04
2023-03-31T08:34:12.746Z,26.18
2023-03-31T08:36:40.035Z,26.39
2023-03-31T08:39:07.872Z,26.87
2023-03-31T08:41:53.604Z,26.78
2023-03-31T08:44:23.899Z,26.36
2023-03-31T08:46:53.128Z,26.38
2023-03-31T08:49:21.474Z,26.32
2023-03-31T08:51:50.840Z,26.91
2023-03-31T08:54:22.563Z,27.07
2023-03-31T08:56:51.083Z,27.39
2023-03-31T08:59:26.826Z,27.73
2023-03-31T09:02:12.912Z,27.58
2023-03-31T09:04:43.284Z,27.09
2023-03-31T09:07:10.486Z,28.00
2023-03-31T09:09:40.795Z,27.95
2023-03-31T09:12:12.063Z,27.64
2023-03-31T09:14:51.693Z,27.81
2023-03-31T09:17:25.746Z,27.84
2023-03-31T09:19:59.308Z,27.79
2023-03-31T09:22:30.675Z,28.03
2023-03-31T09:25:30.563Z,27.99
2023-03-31T09:27:59.490Z,27.08
2023-03-31T09:30:31.097Z,28.13
2023-03-31T09:33:13.245Z,28.03
2023-03-31T09:35:40.717Z,28.09
2023-03-31T09:38:10.382Z,27.99
2023-03-31T09:40:37.837Z,27.94
2023-03-31T09:43:06.591Z,28.26
2023-03-31T09:45:34.377Z,28.90
2023-03-31T09:48:03.941Z,28.40
2023-03-31T09:50:33.545Z,28.38
2023-03-31T09:53:02.161Z,28.65
2023-03-31T09:55:42.672Z,28.40
2023-03-31T09:58:13.413Z,29.15
2023-03-31T10:00:44.926Z,29.14
2023-03-31T10:03:13.905Z,28.76
2023-03-31T10:05:51.855Z,28.53
2023-03-31T10:08:31.240Z,28.81
2023-03-31T10:11:04.374Z,28.59
2023-03-31T10:13:44.081Z,28.75
2023-03-31T10:16:13.375Z,29.08
2023-03-31T10:18:42.019Z,29.52
2023-03-31T10:21:23.781Z,29.33
2023-03-31T10:23:51.914Z,29.16
2023-03-31T10:26:21.733Z,29.01
2023-03-31T10:28:52.699Z,28.62
2023-03-31T10:31:20.529Z,29.36
2023-03-31T10:33:49.431Z,29.66
2023-03-31T10:36:19.526Z,29.09
2023-03-31T10:38:48.360Z,29.92
2023-03-31T10:41:33.963Z,29.53
2023-03-31T10:44:03.687Z,29.80
2023-03-31T10:46:41.893Z,29.56
2023-03-31T10:49:27.908Z,30.07
2023-03-31T10:51:56.807Z,29.90
2023-03-31T10:54:24.445Z,29.47
2023-03-31T10:57:06.471Z,29.17
2023-03-31T10:59:59.211Z,29.48
2023-03-31T11:02:39.494Z,29.38
2023-03-31T11:05:13.704Z,29.48
2023-03-31T11:07:48.400Z,29.53
2023-03-31T11:10:22.434Z,29.33
2023-03-31T11:12:52.153Z,29.31
2023-03-31T11:15:22.270Z,29.42
2023-03-31T11:17:49.532Z,29.58
2023-03-31T11:20:39.828Z,29.52
2023-03-31T11:23:22.654Z,29.07
2023-03-31T11:25:58.492Z,29.07
2023-03-31T11:28:38.051Z,29.51
2023-03-31T11:31:28.458Z,29.23
2023-03-31T11:34:14.428Z,29.75
2023-03-31T11:36:51.073Z,29.74
2023-03-31T11:39:36.783Z,29.33
2023-03-31T11:42:19.399Z,29.92
2023-03-31T11:44:48.639Z,29.74
2023-03-31T11:47:19.667Z,29.37
2023-03-31T11:49:52.229Z,29.49
2023-03-31T11:52:23.599Z,29.37
2023-03-31T11:54:54.209Z,28.94
2023-03-31T11:57:27.999Z,29.20
2023-03-31T11:59:57.828Z,28.58
2023-03-31T12:02:28.236Z,28.88
2023-03-31T12:04:56.829Z,28.94
2023-03-31T12:07:56.647Z,29.50
2023-03-31T12:10:34.586Z,29.08
2023-03-31T12:13:19.191Z,28.92
2023-03-31T12:16:01.681Z,29.29
2023-03-31T12:18:33.138Z,29.71
2023-03-31T12:21:03.673Z,29.01
2023-03-31T12:23:33.491Z,29.01
2023-03-31T12:26:24.283Z,29.08
2023-03-31T12:28:56.967Z,29.40
2023-03-31T12:31:25.036Z,29.21
2023-03-31T12:33:59.036Z,29.38
2023-03-31T12:36:41.302Z,29.74
2023-03-31T12:39:14.661Z,29.48
2023-03-31T12:41:53.807Z,29.57
2023-03-31T12:44:24.011Z,29.58
2023-03-31T12:46:58.304Z,29.07
2023-03-31T12:49:44.163Z,29.08
2023-03-31T12:52:17.309Z,29.38
2023-03-31T12:55:03.391Z,28.99
2023-03-31T12:57:30.816Z,29.34
2023-03-31T13:00:17.552Z,29.69
2023-03-31T13:02:45.042Z,29.73
2023-03-31T13:05:31.127Z,29.97
2023-03-31T13:07:58.619Z,30.03
2023-03-31T13:10:27.140Z,30.12
2023-03-31T13:13:20.903Z,29.53
2023-03-31T13:16:06.351Z,30.12
2023-03-31T13:18:34.508Z,29.84
2023-03-31T13:21:06.132Z,30.32
2023-03-31T13:23:37.980Z,29.68
2023-03-31T13:26:07.192Z,31.12
2023-03-31T13:28:38.678Z,30.78
2023-03-31T13:31:07.563Z,30.41
2023-03-31T13:33:34.674Z,30.54
2023-03-31T13:36:19.306Z,30.34
2023-03-31T13:38:58.740Z,30.47
2023-03-31T13:41:32.682Z,31.10
2023-03-31T13:44:07.026Z,31.08
2023-03-31T13:46:43.625Z,31.50
2023-03-31T13:49:26.013Z,31.13
2023-03-31T13:52:03.612Z,31.17
2023-03-31T13:54:37.024Z,31.27
2023-03-31T13:57:13.312Z,31.11
2023-03-31T14:00:01.333Z,31.52
2023-03-31T14:02:34.766Z,30.98
2023-03-31T14:05:20.979Z,31.63
2023-03-31T14:07:51.218Z,31.45
2023-03-31T14:10:24.649Z,31.52
2023-03-31T14:12:53.047Z,31.61
2023-03-31T14:15:21.639Z,30.99
2023-03-31T14:17:49.104Z,31.36
2023-03-31T14:20:24.439Z,31.58
2023-03-31T14:23:08.071Z,31.61
2023-03-31T14:25:44.605Z,31.24
2023-03-31T14:28:26.160Z,31.67
2023-03-31T14:30:53.455Z,31.80
2023-03-31T14:33:39.483Z,32.07
2023-03-31T14:36:08.473Z,31.73
2023-03-31T14:38:36.239Z,31.95
2023-03-31T14:41:05.030Z,32.44
2023-03-31T14:43:37.342Z,33.71
2023-03-31T14:46:06.309Z,34.02
2023-03-31T14:48:45.366Z,34.62
2023-03-31T14:51:14.430Z,34.39
2023-03-31T14:53:43.666Z,35.38
2023-03-31T14:56:21.639Z,34.96
2023-03-31T14:58:51.926Z,35.58
2023-03-31T15:01:24.190Z,35.43
2023-03-31T15:03:52.865Z,35.94
2023-03-31T15:06:20.256Z,36.97
2023-03-31T15:08:47.740Z,36.56
2023-03-31T15:11:19.103Z,36.91
2023-03-31T15:14:03.462Z,37.54
2023-03-31T15:16:36.734Z,37.50
2023-03-31T15:19:08.120Z,37.50
2023-03-31T15:21:37.947Z,37.10
2023-03-31T15:24:05.764Z,37.51
2023-03-31T15:26:41.285Z,38.04
2023-03-31T15:29:48.270Z,38.66
2023-03-31T15:32:18.570Z,39.01
2023-03-31T15:34:50.946Z,37.96
2023-03-31T15:37:22.292Z,39.06
2023-03-31T15:39:51.019Z,39.86
2023-03-31T15:42:19.710Z,39.30
2023-03-31T15:44:53.957Z,39.64
2023-03-31T15:47:25.708Z,39.59
2023-03-31T15:49:56.199Z,40.43
2023-03-31T15:52:27.685Z,41.01
2023-03-31T15:54:55.021Z,41.87
2023-03-31T15:57:31.441Z,41.65
2023-03-31T16:00:00.885Z,41.41
2023-03-31T16:02:39.303Z,42.59
2023-03-31T16:05:10.874Z,42.57
2023-03-31T16:07:43.082Z,42.65
2023-03-31T16:10:16.901Z,44.23
2023-03-31T16:13:04.319Z,43.71
2023-03-31T16:15:31.964Z,44.20
2023-03-31T16:18:07.731Z,44.31
2023-03-31T16:20:41.406Z,43.41
2023-03-31T16:23:27.510Z,43.78
2023-03-31T16:25:55.137Z,44.56
2023-03-31T16:28:27.206Z,43.17
2023-03-31T16:30:55.073Z,44.20
2023-03-31T16:33:24.811Z,45.01
2023-03-31T16:35:53.955Z,45.19
2023-03-31T16:38:22.483Z,45.32
2023-03-31T16:40:51.024Z,45.96
2023-03-31T16:43:19.862Z,45.24
2023-03-31T16:45:48.472Z,45.30
2023-03-31T16:48:17.738Z,45.90
2023-03-31T16:50:49.807Z,45.73
2023-03-31T16:53:20.830Z,45.25
2023-03-31T16:55:48.501Z,44.96
2023-03-31T16:58:18.250Z,44.07
2023-03-31T17:00:46.278Z,46.53
2023-03-31T17:03:15.082Z,47.32
2023-03-31T17:05:46.874Z,46.73
2023-03-31T17:08:15.137Z,47.16
2023-03-31T17:10:43.107Z,46.61
2023-03-31T17:13:10.545Z,47.14
2023-03-31T17:15:38.262Z,47.46
2023-03-31T17:18:05.755Z,48.39
2023-03-31T17:20:34.482Z,48.35
2023-03-31T17:23:03.302Z,47.63
2023-03-31T17:25:31.764Z,48.76
2023-03-31T17:28:01.722Z,48.01
2023-03-31T17:30:29.134Z,49.09
2023-03-31T17:32:59.963Z,50.20
2023-03-31T17:35:27.349Z,51.26
2023-03-31T17:37:55.615Z,51.09
2023-03-31T17:40:25.194Z,51.18
2023-03-31T17:42:54.288Z,51.51
2023-03-31T17:45:21.918Z,52.97
2023-03-31T17:47:49.216Z,51.97
2023-03-31T17:50:16.606Z,54.99
2023-03-31T17:52:44.022Z,62.20
2023-03-31T17:55:11.844Z,67.76
2023-03-31T17:57:40.851Z,71.85
2023-03-31T18:00:10.106Z,72.36
2023-03-31T18:02:38.100Z,75.96
2023-03-31T18:05:07.411Z,79.56
2023-03-31T18:07:35.162Z,81.16
2023-03-31T18:10:02.710Z,80.11
2023-03-31T18:12:30.546Z,81.15
2023-03-31T18:14:57.858Z,82.82
2023-03-31T18:17:25.314Z,86.47
2023-03-31T18:19:52.739Z,85.96
2023-03-31T18:22:20.000Z,85.87
2023-03-31T18:24:47.651Z,86.16
2023-03-31T18:27:14.958Z,91.03
2023-03-31T18:29:42.233Z,91.85
2023-03-31T18:32:10.319Z,93.60
2023-03-31T18:34:38.693Z,88.09
2023-03-31T18:37:06.007Z,93.18
2023-03-31T18:39:33.252Z,94.27
2023-03-31T18:42:00.617Z,94.93
2023-03-31T18:44:28.007Z,95.06
2023-03-31T18:46:55.451Z,94.66
2023-03-31T18:49:23.062Z,91.61
2023-03-31T18:51:50.354Z,90.86
2023-03-31T18:54:17.907Z,89.41
2023-03-31T18:56:45.351Z,87.88
2023-03-31T18:59:12.799Z,85.99
2023-03-31T19:01:40.585Z,86.24
2023-03-31T19:04:08.429Z,88.63
2023-03-31T19:06:35.932Z,90.96
2023-03-31T19:09:03.676Z,95.92
2023-03-31T19:11:31.268Z,96.28
2023-03-31T19:13:58.490Z,97.20
2023-03-31T19:16:27.415Z,95.17
2023-03-31T19:18:54.901Z,96.26
2023-03-31T19:21:22.620Z,95.49
2023-03-31T19:23:49.937Z,95.30
2023-03-31T19:26:19.795Z,93.56
2023-03-31T19:28:48.401Z,92.78
2023-03-31T19:31:15.859Z,91.56
2023-03-31T19:33:43.215Z,93.35
2023-03-31T19:36:10.605Z,93.74
2023-03-31T19:38:37.968Z,100.00
2023-03-31T19:41:06.353Z,100.00
2023-03-31T19:43:34.236Z,100.00
2023-03-31T19:46:01.939Z,100.00
2023-03-31T19:48:31.729Z,100.00
2023-03-31T19:51:04.659Z,100.00
2023-03-31T19:53:32.381Z,100.00
2023-03-31T19:56:01.247Z,100.00
2023-03-31T19:58:29.509Z,100.00
2023-03-31T20:00:57.478Z,100.00
2023-03-31T20:03:25.693Z,100.00
2023-03-31T20:05:54.399Z,100.00
2023-03-31T20:08:21.664Z,100.00
2023-03-31T20:10:49.635Z,100.00
2023-03-31T20:13:18.749Z,100.00
2023-03-31T20:15:46.943Z,100.00
2023-03-31T20:18:14.315Z,100.00
2023-03-31T20:20:41.789Z,100.00
2023-03-31T20:23:09.032Z,100.00
2023-03-31T20:25:38.056Z,100.00
2023-03-31T20:28:05.369Z,100.00
2023-03-31T20:30:32.654Z,100.00
2023-03-31T20:32:59.978Z,100.00
2023-03-31T20:35:27.484Z,100.00
2023-03-31T20:37:55.683Z,100.00
2023-03-31T20:40:22.961Z,100.00
2023-03-31T20:42:50.593Z,100.00
2023-03-31T20:45:17.924Z,100.00
2023-03-31T20:47:47.077Z,100.00
2023-03-31T20:50:16.087Z,100.00
2023-03-31T20:52:44.981Z,100.00
2023-03-31T20:55:12.220Z,100.00
2023-03-31T20:57:39.492Z,100.00
2023-03-31T21:00:07.568Z,100.00
2023-03-31T21:02:35.181Z,100.00
2023-03-31T21:05:05.348Z,100.00
2023-03-31T21:07:35.784Z,100.00
2023-03-31T21:10:08.869Z,100.00
2023-03-31T21:12:36.492Z,100.00
2023-03-31T21:15:04.113Z,100.00
2023-03-31T21:17:31.385Z,100.00
2023-03-31T21:19:58.715Z,100.00
2023-03-31T21:22:27.822Z,100.00
2023-03-31T21:24:55.661Z,100.00
2023-03-31T21:27:23.113Z,100.00
2023-03-31T21:29:53.199Z,100.00
2023-03-31T21:32:20.633Z,100.00
2023-03-31T21:34:47.932Z,100.00
2023-03-31T21:37:15.233Z,100.00
2023-03-31T21:39:42.517Z,100.00
2023-03-31T21:42:09.792Z,100.00
2023-03-31T21:44:37.064Z,100.00
2023-03-31T21:47:04.451Z,100.00
2023-03-31T21:49:32.844Z,100.00
2023-03-31T21:52:00.391Z,100.00
2023-03-31T21:54:27.686Z,100.00
2023-03-31T21:56:54.961Z,100.00
2023-03-31T21:59:22.302Z,100.00
2023-03-31T22:01:49.574Z,100.00
2023-03-31T22:04:17.510Z,100.00
2023-03-31T22:06:44.714Z,100.00
2023-03-31T22:09:12.019Z,100.00
2023-03-31T22:11:39.289Z,100.00
2023-03-31T22:14:06.936Z,100.00
2023-03-31T22:16:34.338Z,100.00
2023-03-31T22:19:01.618Z,100.00
2023-03-31T22:21:39.934Z,100.00
2023-03-31T22:24:11.129Z,100.00
2023-03-31T22:26:38.354Z,100.00
2023-03-31T22:29:05.782Z,100.00
2023-03-31T22:31:33.116Z,100.00
2023-03-31T22:34:00.373Z,100.00
2023-03-31T22:36:27.724Z,100.00
2023-03-31T22:38:55.051Z,100.00
2023-03-31T22:41:22.708Z,100.00
2023-03-31T22:43:51.441Z,100.00
2023-03-31T22:46:18.846Z,100.00
2023-03-31T22:48:48.620Z,100.00
2023-03-31T22:51:16.716Z,100.00
2023-03-31T22:53:43.894Z,100.00
2023-03-31T22:56:12.645Z,100.00
2023-03-31T22:58:41.036Z,100.00
2023-03-31T23:01:12.246Z,100.00
2023-03-31T23:03:39.619Z,100.00
2023-03-31T23:06:07.371Z,100.00
2023-03-31T23:08:36.022Z,100.00
2023-03-31T23:11:04.198Z,100.00
2023-03-31T23:13:31.714Z,100.00
2023-03-31T23:16:07.032Z,100.00
2023-03-31T23:18:34.663Z,100.00
2023-03-31T23:21:05.988Z,100.00
2023-03-31T23:23:33.400Z,100.00
2023-03-31T23:26:01.655Z,100.00
2023-03-31T23:28:28.865Z,100.00
2023-03-31T23:30:57.203Z,100.00
2023-03-31T23:33:24.786Z,100.00
2023-03-31T23:35:53.479Z,100.00
2023-03-31T23:38:21.023Z,100.00
2023-03-31T23:40:48.718Z,100.00
2023-03-31T23:43:16.699Z,100.00
2023-03-31T23:45:43.935Z,100.00
2023-03-31T23:48:11.252Z,100.00
2023-03-31T23:50:38.898Z,100.00
2023-03-31T23:53:06.173Z,100.00
2023-03-31T23:55:33.831Z,100.00
2023-03-31T23:58:01.671Z,100.00
